Terminal Aerodrome Forecast
Issued by NWS Amarillo, TX

Home | Current Version | Previous Version | Text Only | Print | Product List | Glossary On
Versions: 1 2 3 4 5 6 7 8 9 10 11 12 13 14 15 16 17 18 19 20 21 22 23 24 25 26 27
000
FTUS44 KAMA 011100
TAFDHT
TAF
KDHT 011125Z 0112/0212 23008KT P6SM VCSH SCT050 OVC100
      TEMPO 0112/0114 6SM -SHRA
     FM011500 17011KT P6SM SCT060 BKN110
     FM020100 16008KT 6SM BR VCSH SCT040 BKN080 PROB30 0201/0204
      -TSRA OVC040CB=

USA.gov is the U.S. government's official web portal to all federal, state and local government web resources and services.